createdAt,value
2022-10-05T00:01:40.491Z,101112.44
2022-10-05T00:04:13.527Z,101121.50
2022-10-05T00:06:40.123Z,101124.59
2022-10-05T00:09:12.939Z,101120.38
2022-10-05T00:11:41.038Z,101119.19
2022-10-05T00:14:17.049Z,101111.78
2022-10-05T00:16:44.141Z,101105.25
2022-10-05T00:19:19.236Z,101106.28
2022-10-05T00:21:45.668Z,101098.69
2022-10-05T00:24:15.306Z,101097.19
2022-10-05T00:26:43.210Z,101095.97
2022-10-05T00:29:19.272Z,101090.16
2022-10-05T00:31:45.810Z,101094.16
2022-10-05T00:34:12.282Z,101099.81
2022-10-05T00:36:39.788Z,101094.22
2022-10-05T00:39:06.316Z,101105.44
2022-10-05T00:41:44.977Z,101098.78
2022-10-05T00:44:43.133Z,101109.63
2022-10-05T00:47:33.133Z,101100.13
2022-10-05T00:50:37.458Z,101103.13
2022-10-05T00:53:12.144Z,101109.09
2022-10-05T00:55:51.444Z,101102.88
2022-10-05T00:58:32.511Z,101103.69
2022-10-05T01:01:05.966Z,101100.34
2022-10-05T01:03:47.561Z,101102.69
2022-10-05T01:06:21.826Z,101094.94
2022-10-05T01:08:54.989Z,101097.53
2022-10-05T01:11:29.925Z,101095.72
2022-10-05T01:14:05.234Z,101097.31
2022-10-05T01:16:39.257Z,101099.63
2022-10-05T01:19:20.041Z,101083.72
2022-10-05T01:21:56.976Z,101088.53
2022-10-05T01:24:41.772Z,101088.13
2022-10-05T01:27:18.086Z,101081.66
2022-10-05T01:29:52.273Z,101074.50
2022-10-05T01:32:25.008Z,101074.00
2022-10-05T01:35:00.998Z,101074.81
2022-10-05T01:37:34.568Z,101070.94
2022-10-05T01:40:07.246Z,101067.31
2022-10-05T01:42:46.137Z,101070.81
2022-10-05T01:45:23.229Z,101058.44
2022-10-05T01:47:54.679Z,101053.44
2022-10-05T01:50:32.252Z,101057.16
2022-10-05T01:53:06.258Z,101057.09
2022-10-05T01:55:40.090Z,101047.28
2022-10-05T01:58:14.909Z,101058.63
2022-10-05T02:00:51.698Z,101066.00
2022-10-05T02:03:23.539Z,101051.47
2022-10-05T02:05:52.994Z,101047.00
2022-10-05T02:08:26.831Z,101041.03
2022-10-05T02:10:59.477Z,101025.19
2022-10-05T02:13:30.652Z,101037.72
2022-10-05T02:16:03.213Z,101030.91
2022-10-05T02:18:33.893Z,101036.13
2022-10-05T02:21:02.242Z,101037.97
2022-10-05T02:23:33.184Z,101029.97
2022-10-05T02:26:01.029Z,101018.75
2022-10-05T02:28:33.330Z,101013.16
2022-10-05T02:31:07.629Z,101018.13
2022-10-05T02:33:35.069Z,101017.16
2022-10-05T02:36:05.245Z,101013.34
2022-10-05T02:38:39.880Z,101022.03
2022-10-05T02:41:18.462Z,101014.81
2022-10-05T02:43:51.144Z,101022.84
2022-10-05T02:46:29.091Z,101029.06
2022-10-05T02:49:09.992Z,101020.38
2022-10-05T02:51:46.723Z,101019.00
2022-10-05T02:54:27.954Z,101004.94
2022-10-05T02:56:59.969Z,101007.16
2022-10-05T02:59:33.471Z,101008.22
2022-10-05T03:02:09.875Z,101003.34
2022-10-05T03:04:42.552Z,101004.47
2022-10-05T03:07:15.907Z,100999.50
2022-10-05T03:09:47.836Z,100999.41
2022-10-05T03:12:31.248Z,101010.81
2022-10-05T03:15:09.264Z,101010.56
2022-10-05T03:17:48.966Z,101014.53
2022-10-05T03:20:29.532Z,101010.63
2022-10-05T03:23:00.496Z,101010.00
2022-10-05T03:25:50.657Z,101013.38
2022-10-05T03:28:23.480Z,100997.78
2022-10-05T03:30:58.602Z,100998.97
2022-10-05T03:33:32.910Z,100992.69
2022-10-05T03:36:06.121Z,100984.66
2022-10-05T03:38:41.416Z,100986.31
2022-10-05T03:41:15.065Z,100977.78
2022-10-05T03:43:59.428Z,100976.19
2022-10-05T03:46:44.804Z,100979.75
2022-10-05T03:49:21.815Z,100960.88
2022-10-05T03:51:51.677Z,100972.19
2022-10-05T03:54:22.934Z,100971.69
2022-10-05T03:56:54.698Z,100967.72
2022-10-05T03:59:30.152Z,100974.28
2022-10-05T04:02:02.209Z,100968.94
2022-10-05T04:04:34.693Z,100963.34
2022-10-05T04:07:02.117Z,100953.22
2022-10-05T04:09:35.155Z,100946.88
2022-10-05T04:12:10.991Z,100937.44
2022-10-05T04:14:41.490Z,100935.44
2022-10-05T04:17:12.556Z,100938.06
2022-10-05T04:19:45.137Z,100937.28
2022-10-05T04:22:17.335Z,100932.09
2022-10-05T04:24:49.267Z,100925.25
2022-10-05T04:27:19.330Z,100928.13
2022-10-05T04:29:53.259Z,100927.22
2022-10-05T04:32:29.259Z,100918.09
2022-10-05T04:35:12.370Z,100917.41
2022-10-05T04:37:49.767Z,100925.25
2022-10-05T04:40:33.651Z,100912.66
2022-10-05T04:43:08.262Z,100913.91
2022-10-05T04:45:49.093Z,100913.16
2022-10-05T04:48:38.723Z,100919.28
2022-10-05T04:51:20.550Z,100922.72
2022-10-05T04:53:53.942Z,100912.34
2022-10-05T04:56:28.885Z,100925.84
2022-10-05T04:59:10.189Z,100920.94
2022-10-05T05:01:49.793Z,100918.97
2022-10-05T05:04:35.622Z,100928.59
2022-10-05T05:07:17.867Z,100928.44
2022-10-05T05:10:13.549Z,100919.81
2022-10-05T05:12:50.812Z,100911.28
2022-10-05T05:15:28.237Z,100922.88
2022-10-05T05:18:12.684Z,100923.59
2022-10-05T05:20:54.198Z,100933.00
2022-10-05T05:23:29.151Z,100933.06
2022-10-05T05:26:05.788Z,100932.09
2022-10-05T05:28:39.464Z,100944.31
2022-10-05T05:31:14.703Z,100938.44
2022-10-05T05:33:49.892Z,100943.06
2022-10-05T05:36:30.019Z,100936.63
2022-10-05T05:39:15.920Z,100947.03
2022-10-05T05:41:54.221Z,100940.97
2022-10-05T05:44:24.865Z,100939.31
2022-10-05T05:47:03.959Z,100942.16
2022-10-05T05:49:42.261Z,100936.78
2022-10-05T05:52:15.973Z,100935.94
2022-10-05T05:54:46.550Z,100932.22
2022-10-05T05:57:17.398Z,100928.34
2022-10-05T05:59:53.466Z,100929.69
2022-10-05T06:02:24.359Z,100938.56
2022-10-05T06:04:55.644Z,100929.78
2022-10-05T06:07:30.532Z,100927.25
2022-10-05T06:10:06.139Z,100924.97
2022-10-05T06:12:36.857Z,100928.34
2022-10-05T06:15:13.464Z,100923.19
2022-10-05T06:17:45.146Z,100926.25
2022-10-05T06:20:20.477Z,100928.69
2022-10-05T06:22:48.809Z,100930.22
2022-10-05T06:25:25.661Z,100927.13
2022-10-05T06:28:02.928Z,100928.88
2022-10-05T06:30:43.148Z,100937.19
2022-10-05T06:33:22.701Z,100946.16
2022-10-05T06:36:03.790Z,100933.41
2022-10-05T06:38:48.144Z,100945.97
2022-10-05T06:41:21.940Z,100947.59
2022-10-05T06:43:57.058Z,100947.66
2022-10-05T06:46:28.054Z,100955.28
2022-10-05T06:49:16.480Z,100947.59
2022-10-05T06:51:51.456Z,100944.56
2022-10-05T06:54:36.965Z,100946.75
2022-10-05T06:57:10.331Z,100947.69
2022-10-05T06:59:46.385Z,100945.09
2022-10-05T07:02:21.193Z,100943.06
2022-10-05T07:04:59.173Z,100945.56
2022-10-05T07:07:37.400Z,100944.38
2022-10-05T07:10:17.138Z,100944.81
2022-10-05T07:12:58.253Z,100944.41
2022-10-05T07:15:44.720Z,100944.94
2022-10-05T07:18:28.795Z,100944.63
2022-10-05T07:21:03.902Z,100947.34
2022-10-05T07:23:45.982Z,100948.09
2022-10-05T07:26:21.903Z,100950.19
2022-10-05T07:28:57.837Z,100946.72
2022-10-05T07:31:32.943Z,100936.91
2022-10-05T07:34:06.528Z,100936.34
2022-10-05T07:36:36.851Z,100937.19
2022-10-05T07:39:10.613Z,100940.06
2022-10-05T07:41:42.300Z,100931.91
2022-10-05T07:44:15.876Z,100932.25
2022-10-05T07:46:47.566Z,100931.28
2022-10-05T07:49:22.604Z,100934.22
2022-10-05T07:51:52.907Z,100929.28
2022-10-05T07:54:25.039Z,100931.47
2022-10-05T07:56:59.843Z,100929.63
2022-10-05T07:59:34.540Z,100933.09
2022-10-05T08:02:11.594Z,100932.41
2022-10-05T08:04:45.784Z,100924.19
2022-10-05T08:07:15.612Z,100928.25
2022-10-05T08:09:46.260Z,100938.19
2022-10-05T08:12:25.253Z,100944.41
2022-10-05T08:14:57.049Z,100940.34
2022-10-05T08:17:35.481Z,100942.66
2022-10-05T08:20:15.998Z,100946.00
2022-10-05T08:22:49.235Z,100940.94
2022-10-05T08:25:22.000Z,100942.56
2022-10-05T08:27:55.915Z,100945.72
2022-10-05T08:30:23.745Z,100948.84
2022-10-05T08:32:54.893Z,100933.66
2022-10-05T08:35:28.475Z,100940.09
2022-10-05T08:37:54.756Z,100945.06
2022-10-05T08:41:03.621Z,100941.06
2022-10-05T08:44:29.072Z,100944.44
2022-10-05T08:47:14.990Z,100944.78
2022-10-05T08:50:12.831Z,100948.00
2022-10-05T08:53:01.142Z,100945.91
2022-10-05T08:55:46.900Z,100956.25
2022-10-05T08:58:52.244Z,100953.31
2022-10-05T09:01:25.860Z,100948.25
2022-10-05T09:04:03.549Z,100950.59
2022-10-05T09:06:54.437Z,100951.00
2022-10-05T09:09:47.458Z,100954.53
2022-10-05T09:12:39.805Z,100951.81
2022-10-05T09:15:31.601Z,100960.59
2022-10-05T09:18:36.227Z,100943.13
2022-10-05T09:21:12.773Z,100953.72
2022-10-05T09:23:40.890Z,100956.09
2022-10-05T09:26:28.455Z,100956.50
2022-10-05T09:29:14.205Z,100964.00
2022-10-05T09:31:55.717Z,100945.94
2022-10-05T09:34:54.688Z,100947.84
2022-10-05T09:37:38.775Z,100949.44
2022-10-05T09:40:40.498Z,100954.31
2022-10-05T09:43:47.881Z,100955.44
2022-10-05T09:46:44.068Z,100948.59
2022-10-05T09:49:33.724Z,100956.81
2022-10-05T09:52:18.989Z,100960.94
2022-10-05T09:55:19.465Z,100953.66
2022-10-05T09:58:08.400Z,100946.09
2022-10-05T10:00:58.817Z,100949.19
2022-10-05T10:04:03.257Z,100948.31
2022-10-05T10:07:24.496Z,100949.91
2022-10-05T10:10:33.046Z,100941.88
2022-10-05T10:13:22.178Z,100949.78
2022-10-05T10:16:13.147Z,100944.09
2022-10-05T10:19:05.666Z,100943.84
2022-10-05T10:22:09.476Z,100943.81
2022-10-05T10:24:58.896Z,100935.47
2022-10-05T10:27:38.478Z,100942.16
2022-10-05T10:30:36.534Z,100942.09
2022-10-05T10:33:30.604Z,100946.53
2022-10-05T10:36:06.076Z,100939.91
2022-10-05T10:38:39.974Z,100939.84
2022-10-05T10:41:26.947Z,100937.44
2022-10-05T10:44:34.567Z,100936.94
2022-10-05T10:47:27.257Z,100941.78
2022-10-05T10:50:25.227Z,100933.47
2022-10-05T10:53:04.590Z,100933.09
2022-10-05T10:55:41.926Z,100929.41
2022-10-05T10:58:59.859Z,100923.88
2022-10-05T11:01:32.673Z,100918.66
2022-10-05T11:04:31.025Z,100911.56
2022-10-05T11:07:31.809Z,100903.88
2022-10-05T11:10:29.498Z,100907.25
2022-10-05T11:13:16.779Z,100899.56
2022-10-05T11:16:14.594Z,100910.97
2022-10-05T11:19:03.698Z,100895.47
2022-10-05T11:21:38.421Z,100895.31
2022-10-05T11:24:41.797Z,100884.28
2022-10-05T11:27:33.570Z,100892.81
2022-10-05T11:30:22.465Z,100881.59
2022-10-05T11:33:10.345Z,100883.25
2022-10-05T11:35:59.229Z,100873.19
2022-10-05T11:38:47.058Z,100878.75
2022-10-05T11:41:50.637Z,100861.03
2022-10-05T11:44:59.763Z,100853.38
2022-10-05T11:47:28.871Z,100847.88
2022-10-05T11:50:04.247Z,100847.72
2022-10-05T11:52:38.428Z,100842.88
2022-10-05T11:55:24.197Z,100841.81
2022-10-05T11:57:55.797Z,100841.25
2022-10-05T12:00:23.603Z,100834.56
2022-10-05T12:03:20.850Z,100829.19
2022-10-05T12:06:00.011Z,100826.34
2022-10-05T12:08:39.983Z,100827.41
2022-10-05T12:11:25.538Z,100823.56
2022-10-05T12:13:59.534Z,100818.34
2022-10-05T12:16:31.581Z,100814.66
2022-10-05T12:19:04.442Z,100815.50
2022-10-05T12:21:40.442Z,100812.72
2022-10-05T12:24:16.008Z,100811.38
2022-10-05T12:26:50.356Z,100799.78
2022-10-05T12:29:23.711Z,100789.78
2022-10-05T12:31:58.542Z,100795.09
2022-10-05T12:34:36.761Z,100786.13
2022-10-05T12:37:12.950Z,100792.16
2022-10-05T12:39:45.465Z,100775.56
2022-10-05T12:42:25.859Z,100770.53
2022-10-05T12:45:12.492Z,100767.13
2022-10-05T12:47:54.015Z,100773.72
2022-10-05T12:50:27.431Z,100773.50
2022-10-05T12:53:13.668Z,100760.59
2022-10-05T12:55:47.849Z,100753.88
2022-10-05T12:58:28.534Z,100766.78
2022-10-05T13:00:59.434Z,100755.03
2022-10-05T13:03:34.136Z,100750.34
2022-10-05T13:06:13.352Z,100769.03
2022-10-05T13:08:49.439Z,100759.44
2022-10-05T13:11:23.715Z,100765.38
2022-10-05T13:14:02.271Z,100760.66
2022-10-05T13:16:38.300Z,100762.06
2022-10-05T13:19:19.548Z,100745.31
2022-10-05T13:22:13.210Z,100728.25
2022-10-05T13:24:52.205Z,100734.56
2022-10-05T13:27:21.818Z,100736.41
2022-10-05T13:29:54.700Z,100719.78
2022-10-05T13:32:23.927Z,100728.00
2022-10-05T13:34:57.354Z,100723.75
2022-10-05T13:37:31.184Z,100718.22
2022-10-05T13:40:10.987Z,100723.59
2022-10-05T13:42:43.264Z,100711.91
2022-10-05T13:45:17.527Z,100707.06
2022-10-05T13:47:55.264Z,100709.97
2022-10-05T13:50:28.443Z,100708.06
2022-10-05T13:53:07.459Z,100708.50
2022-10-05T13:55:42.990Z,100702.88
2022-10-05T13:58:19.055Z,100708.97
2022-10-05T14:00:53.405Z,100696.09
2022-10-05T14:03:29.873Z,100698.09
2022-10-05T14:05:58.208Z,100706.34
2022-10-05T14:08:31.906Z,100693.34
2022-10-05T14:10:58.378Z,100692.19
2022-10-05T14:13:29.038Z,100696.50
2022-10-05T14:15:59.740Z,100686.44
2022-10-05T14:18:28.851Z,100694.06
2022-10-05T14:21:14.244Z,100696.19
2022-10-05T14:23:40.990Z,100686.22
2022-10-05T14:26:17.969Z,100690.66
2022-10-05T14:28:57.127Z,100686.59
2022-10-05T14:31:31.558Z,100675.47
2022-10-05T14:34:26.878Z,100671.13
2022-10-05T14:36:58.013Z,100678.50
2022-10-05T14:39:26.139Z,100673.25
2022-10-05T14:41:52.794Z,100672.31
2022-10-05T14:44:28.778Z,100660.66
2022-10-05T14:46:58.322Z,100663.59
2022-10-05T14:49:27.285Z,100654.88
2022-10-05T14:51:55.301Z,100653.72
2022-10-05T14:54:26.808Z,100663.22
2022-10-05T14:57:05.132Z,100653.50
2022-10-05T14:59:48.234Z,100658.34
2022-10-05T15:02:45.407Z,100656.44
2022-10-05T15:05:16.987Z,100653.69
2022-10-05T15:07:45.851Z,100650.28
2022-10-05T15:10:31.958Z,100650.84
2022-10-05T15:13:11.335Z,100654.97
2022-10-05T15:15:44.803Z,100649.88
2022-10-05T15:18:27.161Z,100648.50
2022-10-05T15:21:02.911Z,100653.59
2022-10-05T15:23:37.798Z,100641.78
2022-10-05T15:26:19.811Z,100638.22
2022-10-05T15:28:53.676Z,100638.97
2022-10-05T15:31:29.264Z,100622.13
2022-10-05T15:34:02.911Z,100624.97
2022-10-05T15:36:37.233Z,100625.38
2022-10-05T15:39:11.690Z,100620.94
2022-10-05T15:41:55.817Z,100619.53
2022-10-05T15:44:31.572Z,100627.03
2022-10-05T15:47:05.778Z,100613.97
2022-10-05T15:49:41.428Z,100615.03
2022-10-05T15:52:18.472Z,100611.34
2022-10-05T15:55:20.260Z,100611.72
2022-10-05T15:57:55.978Z,100612.50
2022-10-05T16:00:24.755Z,100611.41
2022-10-05T16:02:57.305Z,100609.09
2022-10-05T16:05:34.391Z,100611.53
2022-10-05T16:08:01.058Z,100611.03
2022-10-05T16:10:32.993Z,100610.34
2022-10-05T16:13:15.021Z,100604.94
2022-10-05T16:15:45.975Z,100606.69
2022-10-05T16:18:39.586Z,100612.16
2022-10-05T16:21:21.971Z,100607.16
2022-10-05T16:24:12.635Z,100595.00
2022-10-05T16:26:52.619Z,100592.25
2022-10-05T16:29:28.450Z,100590.63
2022-10-05T16:32:00.129Z,100591.22
2022-10-05T16:34:38.453Z,100600.69
2022-10-05T16:37:18.552Z,100603.19
2022-10-05T16:39:54.087Z,100605.63
2022-10-05T16:42:35.028Z,100602.97
2022-10-05T16:45:14.932Z,100605.31
2022-10-05T16:47:49.246Z,100602.28
2022-10-05T16:50:23.224Z,100604.09
2022-10-05T16:52:55.984Z,100609.50
2022-10-05T16:55:30.329Z,100618.88
2022-10-05T16:57:59.373Z,100604.22
2022-10-05T17:00:34.665Z,100611.50
2022-10-05T17:03:12.568Z,100612.81
2022-10-05T17:06:11.408Z,100622.13
2022-10-05T17:08:55.922Z,100631.97
2022-10-05T17:11:34.657Z,100633.06
2022-10-05T17:14:20.414Z,100639.63
2022-10-05T17:16:59.918Z,100640.69
2022-10-05T17:19:47.292Z,100649.97
2022-10-05T17:22:28.660Z,100639.19
2022-10-05T17:25:06.819Z,100651.34
2022-10-05T17:27:50.869Z,100654.47
2022-10-05T17:30:47.158Z,100653.31
2022-10-05T17:33:20.395Z,100662.56
2022-10-05T17:35:53.442Z,100655.66
2022-10-05T17:38:22.432Z,100664.91
2022-10-05T17:41:24.300Z,100669.47
2022-10-05T17:44:17.033Z,100670.53
2022-10-05T17:46:45.004Z,100673.97
2022-10-05T17:49:49.893Z,100677.63
2022-10-05T17:52:25.281Z,100683.72
2022-10-05T17:55:00.469Z,100681.16
2022-10-05T17:57:28.471Z,100676.13
2022-10-05T18:00:00.612Z,100678.16
2022-10-05T18:02:42.285Z,100688.09
2022-10-05T18:05:25.098Z,100685.03
2022-10-05T18:08:28.907Z,100685.94
2022-10-05T18:11:11.896Z,100696.00
2022-10-05T18:13:42.802Z,100699.38
2022-10-05T18:16:10.270Z,100696.31
2022-10-05T18:18:55.748Z,100692.94
2022-10-05T18:21:31.476Z,100693.78
2022-10-05T18:24:07.500Z,100698.63
2022-10-05T18:26:41.645Z,100694.53
2022-10-05T18:29:23.183Z,100707.84
2022-10-05T18:31:57.573Z,100696.41
2022-10-05T18:34:29.991Z,100696.75
2022-10-05T18:37:18.062Z,100701.63
2022-10-05T18:40:00.092Z,100700.50
2022-10-05T18:42:36.496Z,100703.44
2022-10-05T18:45:21.725Z,100705.09
2022-10-05T18:48:02.107Z,100709.84
2022-10-05T18:50:36.867Z,100716.63
2022-10-05T18:53:17.949Z,100710.69
2022-10-05T18:55:47.619Z,100721.47
2022-10-05T18:58:20.108Z,100714.19
2022-10-05T19:01:28.611Z,100718.56
2022-10-05T19:04:08.792Z,100729.78
2022-10-05T19:06:43.679Z,100727.50
2022-10-05T19:09:23.455Z,100740.25
2022-10-05T19:11:57.359Z,100746.56
2022-10-05T19:14:33.930Z,100739.91
2022-10-05T19:17:18.105Z,100737.94
2022-10-05T19:20:05.142Z,100739.97
2022-10-05T19:22:46.244Z,100746.34
2022-10-05T19:25:24.326Z,100755.00
2022-10-05T19:28:02.245Z,100767.50
2022-10-05T19:30:43.268Z,100766.78
2022-10-05T19:33:25.556Z,100769.03
2022-10-05T19:36:04.465Z,100775.28
2022-10-05T19:38:40.992Z,100772.41
2022-10-05T19:41:14.248Z,100773.13
2022-10-05T19:44:04.631Z,100776.66
2022-10-05T19:46:53.629Z,100788.09
2022-10-05T19:49:39.862Z,100789.84
2022-10-05T19:52:11.845Z,100784.81
2022-10-05T19:54:38.491Z,100793.75
2022-10-05T19:57:15.575Z,100795.47
2022-10-05T19:59:45.898Z,100794.31
2022-10-05T20:02:15.337Z,100798.63
2022-10-05T20:04:43.619Z,100795.38
2022-10-05T20:07:15.603Z,100808.78
2022-10-05T20:09:51.110Z,100800.16
2022-10-05T20:12:17.707Z,100799.31
2022-10-05T20:14:44.294Z,100809.88
2022-10-05T20:17:15.501Z,100787.63
2022-10-05T20:19:41.945Z,100802.88
2022-10-05T20:22:32.189Z,100812.09
2022-10-05T20:25:00.239Z,100812.34
2022-10-05T20:27:43.091Z,100811.38
2022-10-05T20:30:11.790Z,100824.38
2022-10-05T20:32:38.455Z,100819.34
2022-10-05T20:35:05.796Z,100828.84
2022-10-05T20:37:33.632Z,100834.56
2022-10-05T20:40:00.107Z,100830.44
2022-10-05T20:42:26.563Z,100834.50
2022-10-05T20:44:56.710Z,100830.00
2022-10-05T20:47:23.857Z,100835.97
2022-10-05T20:49:50.353Z,100836.06
2022-10-05T20:52:16.782Z,100848.59
2022-10-05T20:57:15.888Z,100839.97
2022-10-05T20:59:42.315Z,100850.13
2022-10-05T21:02:08.873Z,100861.47
2022-10-05T21:04:40.232Z,100856.94
2022-10-05T21:07:07.768Z,100866.59
2022-10-05T21:09:34.226Z,100868.16
2022-10-05T21:12:01.963Z,100848.97
2022-10-05T21:14:28.509Z,100852.94
2022-10-05T21:16:54.972Z,100856.94
2022-10-05T21:19:21.380Z,100857.28
2022-10-05T21:21:47.767Z,100855.53
2022-10-05T21:24:15.005Z,100846.75
2022-10-05T21:26:42.381Z,100852.59
2022-10-05T21:29:12.744Z,100861.59
2022-10-05T21:31:40.014Z,100857.41
2022-10-05T21:34:06.752Z,100855.41
2022-10-05T21:36:33.242Z,100852.81
2022-10-05T21:38:59.726Z,100865.59
2022-10-05T21:41:26.474Z,100865.16
2022-10-05T21:43:53.077Z,100856.50
2022-10-05T21:46:23.031Z,100858.88
2022-10-05T21:48:49.940Z,100863.34
2022-10-05T21:51:18.396Z,100862.66
2022-10-05T21:53:49.870Z,100870.97
2022-10-05T21:56:19.194Z,100870.38
2022-10-05T21:58:47.349Z,100873.31
2022-10-05T22:01:15.942Z,100875.63
2022-10-05T22:03:45.648Z,100875.19
2022-10-05T22:06:12.155Z,100876.22
2022-10-05T22:08:38.691Z,100875.94
2022-10-05T22:11:14.205Z,100878.69
2022-10-05T22:13:43.333Z,100881.03
2022-10-05T22:16:10.383Z,100882.34
2022-10-05T22:18:37.358Z,100883.72
2022-10-05T22:21:06.326Z,100889.22
2022-10-05T22:23:33.309Z,100887.13
2022-10-05T22:26:00.084Z,100888.06
2022-10-05T22:28:27.507Z,100889.94
2022-10-05T22:30:54.256Z,100886.41
2022-10-05T22:33:20.657Z,100889.47
2022-10-05T22:35:47.169Z,100894.72
2022-10-05T22:38:14.987Z,100897.53
2022-10-05T22:40:41.390Z,100894.88
2022-10-05T22:43:08.010Z,100899.66
2022-10-05T22:45:34.577Z,100905.75
2022-10-05T22:48:01.045Z,100901.63
2022-10-05T22:50:27.591Z,100902.47
2022-10-05T22:52:54.028Z,100890.78
2022-10-05T22:55:21.855Z,100901.06
2022-10-05T22:57:48.259Z,100916.44
2022-10-05T23:00:15.301Z,100907.16
2022-10-05T23:02:43.404Z,100922.13
2022-10-05T23:05:10.958Z,100925.63
2022-10-05T23:07:38.240Z,100924.81
2022-10-05T23:10:06.235Z,100926.34
2022-10-05T23:12:34.084Z,100930.16
2022-10-05T23:15:00.636Z,100942.16
2022-10-05T23:17:27.142Z,100942.38
2022-10-05T23:19:54.405Z,100949.13
2022-10-05T23:22:21.056Z,100947.28
2022-10-05T23:24:47.483Z,100943.25
2022-10-05T23:27:13.934Z,100942.06
2022-10-05T23:29:41.749Z,100950.25
2022-10-05T23:32:08.175Z,100952.97
2022-10-05T23:34:34.651Z,100958.78
2022-10-05T23:37:01.115Z,100955.84
2022-10-05T23:39:27.633Z,100966.97
2022-10-05T23:41:54.070Z,100955.22
2022-10-05T23:44:20.495Z,100970.03
2022-10-05T23:46:48.943Z,100971.06
2022-10-05T23:49:15.414Z,100975.69
2022-10-05T23:51:41.815Z,100980.19
2022-10-05T23:54:08.241Z,100980.25
2022-10-05T23:56:34.691Z,100988.72
2022-10-05T23:59:01.088Z,100991.50
